.
WxDataArchive / Data Records for 2007-08-06
2007-08-05 August 2007 2007-08-07

Data Records for Monday, 06 August 2007

Time	Temp	Chill	HIndex	Humid	Dewpt	 Wind 	HiWind	WindDir	Rain 	Barom 
-----	----	-----	------	-----	-----	------	------	-------	-----	----- 
00:00	73.5	73.5	73.5	97	72.6	0	1	315	0.00	29.727 
00:05	73.5	73.5	73.5	97	72.6	0	0	---	0.00	29.725 
00:10	73.7	73.7	73.7	97	72.8	0	1	315	0.00	29.725 
00:15	73.7	73.7	73.7	97	72.8	0	2	315	0.00	29.724 
00:20	73.9	73.9	73.9	97	73.0	0	1	292	0.00	29.726 
00:25	73.9	73.9	73.9	97	73.0	0	2	270	0.00	29.723 
00:30	73.9	73.9	73.9	97	73.0	1	2	270	0.00	29.722 
00:35	73.9	73.9	73.9	97	73.0	1	2	270	0.00	29.721 
00:40	73.9	73.9	73.9	97	73.0	1	2	248	0.00	29.724 
00:45	73.9	73.9	73.9	97	73.0	1	2	248	0.00	29.725 
00:50	73.9	73.9	73.9	97	73.0	0	1	248	0.00	29.725 
00:55	73.9	73.9	73.9	97	73.0	0	2	248	0.00	29.727 
01:00	73.9	73.9	73.9	97	73.0	0	1	248	0.00	29.728 
01:05	73.9	73.9	73.9	97	73.0	0	2	248	0.00	29.729 
01:10	73.9	73.9	73.9	97	73.0	0	2	248	0.00	29.727 
01:15	73.9	73.9	73.9	96	72.7	0	1	248	0.00	29.726 
01:20	73.9	73.9	73.9	96	72.7	0	2	248	0.00	29.726 
01:25	73.9	73.9	73.9	96	72.7	1	2	248	0.00	29.725 
01:30	73.9	73.9	73.9	96	72.7	0	2	248	0.00	29.722 
01:35	73.9	73.9	73.9	96	72.7	0	2	248	0.00	29.723 
01:40	73.9	73.9	73.9	96	72.7	0	1	248	0.00	29.724 
01:45	73.7	73.7	73.7	96	72.5	0	1	248	0.00	29.725 
01:50	73.7	73.7	73.7	96	72.5	0	1	248	0.00	29.723 
01:55	73.7	73.7	73.7	96	72.5	1	2	248	0.00	29.722 
02:00	73.7	73.7	73.7	96	72.5	0	1	248	0.00	29.723 
02:05	73.7	73.7	73.7	96	72.5	0	1	248	0.00	29.723 
02:10	73.7	73.7	73.7	96	72.5	0	1	248	0.00	29.722 
02:15	73.7	73.7	73.7	96	72.5	0	1	248	0.00	29.721 
02:20	73.7	73.7	73.7	96	72.5	0	1	248	0.00	29.721 
02:25	73.7	73.7	73.7	96	72.5	0	2	248	0.00	29.716 
02:30	73.7	73.7	73.7	96	72.5	0	1	248	0.00	29.714 
02:35	73.7	73.7	73.7	96	72.5	0	1	248	0.00	29.716 
02:40	73.7	73.7	73.7	96	72.5	0	1	248	0.00	29.718 
02:45	73.7	73.7	73.7	96	72.5	0	1	248	0.00	29.722 
02:50	73.7	73.7	73.7	96	72.5	0	0	---	0.00	29.724 
02:55	73.5	73.5	73.5	96	72.3	0	0	---	0.00	29.724 
03:00	73.5	73.5	73.5	96	72.3	0	1	248	0.00	29.726 
03:05	73.5	73.5	73.5	96	72.3	0	0	---	0.00	29.724 
03:10	73.3	73.3	73.3	96	72.1	0	0	---	0.00	29.727 
03:15	73.3	73.3	73.3	96	72.1	0	0	---	0.00	29.726 
03:20	73.2	73.2	73.2	96	72.0	0	0	---	0.00	29.727 
03:25	73.2	73.2	73.2	96	72.0	0	0	---	0.00	29.727 
03:30	73.2	73.2	73.2	96	72.0	0	0	---	0.00	29.727 
03:35	73.2	73.2	73.2	96	72.0	0	0	---	0.00	29.728 
03:40	73.2	73.2	73.2	96	72.0	0	0	---	0.00	29.729 
03:45	73.0	73.0	73.0	96	71.8	0	0	---	0.00	29.729 
03:50	73.0	73.0	73.0	96	71.8	0	0	---	0.00	29.731 
03:55	73.0	73.0	73.0	96	71.8	0	1	248	0.00	29.732 
04:00	73.2	73.2	73.2	96	72.0	0	1	248	0.00	29.733 
04:05	73.2	73.2	73.2	96	72.0	0	0	---	0.00	29.734 
04:10	73.0	73.0	73.0	96	71.8	0	1	248	0.00	29.737 
04:15	73.0	73.0	73.0	96	71.8	0	0	---	0.00	29.738 
04:20	73.0	73.0	73.0	96	71.8	0	1	248	0.00	29.741 
04:25	73.2	73.2	73.2	96	72.0	0	1	248	0.00	29.743 
04:30	73.2	73.2	73.2	96	72.0	0	1	248	0.00	29.743 
04:35	73.2	73.2	73.2	96	72.0	0	0	---	0.00	29.745 
04:40	73.2	73.2	73.2	96	72.0	0	0	---	0.00	29.747 
04:45	73.2	73.2	73.2	96	72.0	0	1	248	0.00	29.750 
04:50	73.3	73.3	73.3	96	72.1	0	1	248	0.00	29.752 
04:55	73.3	73.3	73.3	97	72.4	0	1	248	0.00	29.751 
05:00	73.3	73.3	73.3	97	72.4	0	1	248	0.00	29.754 
05:05	73.3	73.3	73.3	97	72.4	0	1	248	0.00	29.757 
05:10	73.3	73.3	73.3	97	72.4	0	0	---	0.00	29.757 
05:15	73.3	73.3	73.3	97	72.4	0	0	---	0.00	29.760 
05:20	73.2	73.2	73.2	96	72.0	0	0	---	0.00	29.759 
05:25	73.2	73.2	73.2	96	72.0	0	0	---	0.00	29.761 
05:30	73.2	73.2	73.2	97	72.3	0	0	---	0.00	29.762 
05:35	73.2	73.2	73.2	97	72.3	0	0	---	0.00	29.762 
05:40	73.0	73.0	73.0	97	72.1	0	0	---	0.00	29.761 
05:45	73.0	73.0	73.0	97	72.1	0	0	---	0.00	29.762 
05:50	73.0	73.0	73.0	97	72.1	0	0	---	0.00	29.763 
05:55	73.0	73.0	73.0	97	72.1	0	0	---	0.00	29.765 
06:00	73.2	73.2	73.2	97	72.3	0	0	---	0.01	29.766 
06:05	73.2	73.2	73.2	97	72.3	0	0	---	0.00	29.769 
06:10	73.2	73.2	73.2	97	72.3	0	0	---	0.00	29.768 
06:15	73.0	73.0	73.0	97	72.1	0	0	---	0.00	29.768 
06:20	73.0	73.0	73.0	97	72.1	0	0	---	0.00	29.767 
06:25	73.0	73.0	73.0	97	72.1	0	1	248	0.00	29.772 
06:30	73.2	73.2	73.2	97	72.3	0	0	---	0.00	29.773 
06:35	73.2	73.2	73.2	97	72.3	0	0	---	0.00	29.775 
06:40	73.2	73.2	73.2	97	72.3	0	0	---	0.00	29.774 
06:45	73.3	73.3	73.3	97	72.4	0	0	---	0.00	29.776 
06:50	73.5	73.5	73.5	97	72.6	0	0	---	0.00	29.774 
06:55	73.5	73.5	73.5	97	72.6	0	0	---	0.00	29.776 
07:00	73.7	73.7	73.7	97	72.8	0	0	---	0.00	29.777 
07:05	73.7	73.7	73.7	97	72.8	0	0	---	0.00	29.780 
07:10	73.7	73.7	73.7	97	72.8	0	0	---	0.00	29.787 
07:15	73.9	73.9	73.9	97	73.0	0	0	---	0.00	29.787 
07:20	73.9	73.9	73.9	97	73.0	0	0	---	0.00	29.791 
07:25	73.9	73.9	73.9	97	73.0	0	1	248	0.00	29.793 
07:30	74.0	74.0	74.0	97	73.1	0	1	248	0.00	29.794 
07:35	74.0	74.0	74.0	97	73.1	0	1	248	0.00	29.794 
07:40	74.2	74.2	74.2	97	73.3	0	1	270	0.00	29.794 
07:45	74.6	74.6	74.6	97	73.7	0	1	270	0.00	29.795 
07:50	74.6	74.6	74.6	96	73.4	0	1	270	0.00	29.798 
07:55	74.7	74.7	74.7	96	73.5	0	1	270	0.00	29.802 
08:00	75.1	75.1	73.2	96	73.9	0	1	270	0.00	29.801 
08:05	75.1	75.1	73.2	96	73.9	0	1	270	0.00	29.801 
08:10	75.1	75.1	73.2	96	73.9	0	1	270	0.00	29.802 
08:15	75.1	75.1	73.4	95	73.6	0	1	270	0.00	29.803 
08:20	75.3	75.3	73.8	95	73.8	0	1	270	0.00	29.805 
08:25	75.4	75.4	74.1	95	73.9	0	1	270	0.00	29.805 
08:30	75.4	75.4	74.1	95	73.9	0	0	---	0.00	29.806 
08:35	75.6	75.6	74.7	94	73.7	0	1	270	0.00	29.807 
08:40	75.6	75.6	74.7	94	73.7	0	1	270	0.00	29.807 
08:45	75.6	75.6	74.7	94	73.7	0	1	270	0.00	29.807 
08:50	75.6	75.6	74.8	93	73.4	0	1	270	0.00	29.808 
08:55	75.8	75.8	75.3	93	73.6	0	1	270	0.00	29.807 
09:00	76.0	76.0	75.7	93	73.8	0	0	---	0.00	29.807 
09:05	76.3	76.3	76.4	93	74.1	0	1	270	0.00	29.809 
09:10	76.8	76.8	77.6	92	74.3	0	1	270	0.00	29.809 
09:15	77.0	77.0	78.1	91	74.2	0	1	270	0.00	29.809 
09:20	77.0	77.0	78.2	90	73.8	0	1	270	0.00	29.808 
09:25	77.4	77.4	79.1	90	74.2	0	1	270	0.00	29.806 
09:30	77.9	77.9	80.2	89	74.4	0	1	270	0.00	29.806 
09:35	78.3	78.3	81.1	87	74.1	0	1	270	0.00	29.805 
09:40	78.8	78.8	82.2	86	74.2	0	1	270	0.00	29.806 
09:45	79.2	79.2	82.9	84	73.9	0	2	270	0.00	29.807 
09:50	79.4	79.4	83.4	84	74.1	0	2	270	0.00	29.809 
09:55	79.6	79.6	83.8	84	74.3	0	2	270	0.00	29.809 
10:00	79.9	79.9	84.5	84	74.6	0	1	270	0.00	29.807 
10:05	79.9	79.9	84.3	82	73.9	0	1	270	0.00	29.807 
10:10	80.1	80.1	84.6	81	73.7	0	2	270	0.00	29.807 
10:15	80.7	80.7	85.8	80	73.9	0	1	270	0.00	29.808 
10:20	81.1	81.1	86.5	79	73.9	1	3	270	0.00	29.808 
10:25	81.2	81.2	86.7	79	74.0	0	1	270	0.00	29.810 
10:30	81.1	81.1	86.5	79	73.9	0	1	292	0.00	29.810 
10:35	81.4	81.4	86.9	78	73.9	0	1	292	0.00	29.811 
10:40	81.6	81.6	87.4	78	74.1	1	2	292	0.00	29.813 
10:45	82.0	82.0	88.0	77	74.1	1	3	292	0.00	29.814 
10:50	82.4	82.4	88.4	75	73.7	1	3	270	0.00	29.810 
10:55	82.6	82.6	88.6	74	73.4	1	3	270	0.00	29.815 
11:00	82.4	82.4	88.2	74	73.3	1	2	270	0.00	29.814 
11:05	82.4	82.4	88.2	74	73.3	0	2	292	0.00	29.812 
11:10	82.8	82.8	89.3	75	74.0	0	2	292	0.00	29.813 
11:15	83.2	83.2	90.6	76	74.8	1	3	292	0.00	29.809 
11:20	83.8	83.8	91.7	75	75.0	1	2	270	0.00	29.806 
11:25	84.1	84.1	92.0	74	74.9	1	2	270	0.00	29.805 
11:30	84.7	84.7	92.8	72	74.6	0	2	270	0.00	29.804 
11:35	84.7	84.7	92.4	71	74.2	0	2	270	0.00	29.805 
11:40	84.5	84.5	92.3	72	74.5	1	2	270	0.00	29.805 
11:45	84.5	84.5	91.6	70	73.6	0	2	270	0.00	29.803 
11:50	84.5	84.5	91.6	70	73.6	0	3	292	0.00	29.804 
11:55	84.7	84.7	91.7	69	73.4	1	3	292	0.00	29.803 
12:00	84.5	84.5	91.6	70	73.6	1	2	292	0.00	29.803 
12:05	84.5	84.5	92.3	72	74.5	0	2	292	0.00	29.804 
12:10	84.5	84.5	91.9	71	74.0	1	3	292	0.00	29.804 
12:15	84.3	84.3	90.8	69	73.0	1	3	315	0.00	29.803 
12:20	84.3	84.3	91.1	70	73.4	0	2	315	0.00	29.803 
12:25	84.3	84.3	90.8	69	73.0	1	3	270	0.00	29.803 
12:30	84.9	84.9	92.1	69	73.6	1	2	270	0.00	29.802 
12:35	85.5	85.5	93.1	68	73.7	1	4	270	0.00	29.803 
12:40	85.9	85.9	93.2	66	73.2	1	3	270	0.00	29.801 
12:45	86.1	86.1	93.6	66	73.4	2	4	248	0.00	29.802 
12:50	86.5	86.5	94.5	66	73.8	1	2	248	0.00	29.800 
12:55	87.0	87.0	95.7	66	74.2	1	2	270	0.00	29.801 
13:00	86.7	86.7	94.1	64	73.0	1	3	292	0.00	29.801 
13:05	86.5	86.5	94.1	65	73.3	1	3	270	0.00	29.801 
13:10	87.0	87.0	95.7	66	74.2	1	3	270	0.00	29.801 
13:15	87.6	87.6	96.6	65	74.3	0	2	248	0.00	29.800 
13:20	87.8	87.8	95.6	62	73.1	2	4	270	0.00	29.799 
13:25	87.6	87.6	95.2	62	72.9	1	3	270	0.00	29.799 
13:30	87.4	87.4	95.7	64	73.7	0	2	315	0.00	29.799 
13:35	88.0	88.0	96.1	62	73.3	1	3	270	0.00	29.798 
13:40	88.2	88.2	98.0	65	74.9	1	3	292	0.00	29.797 
13:45	88.8	88.8	96.9	60	73.1	2	5	270	0.00	29.799 
13:50	88.8	88.8	96.9	60	73.1	1	5	270	0.00	29.797 
13:55	88.6	88.6	97.5	62	73.9	1	3	270	0.00	29.798 
14:00	88.8	88.8	97.4	61	73.6	2	4	270	0.00	29.797 
14:05	88.8	88.8	96.9	60	73.1	1	3	270	0.00	29.798 
14:10	88.6	88.6	96.5	60	72.9	2	3	248	0.00	29.798 
14:15	88.6	88.6	97.0	61	73.4	1	4	292	0.00	29.797 
14:20	88.6	88.6	97.0	61	73.4	1	3	270	0.00	29.795 
14:25	89.3	89.3	98.0	60	73.6	1	3	270	0.00	29.794 
14:30	89.5	89.5	97.4	58	72.7	1	4	270	0.00	29.792 
14:35	89.3	89.3	97.0	58	72.5	2	4	270	0.00	29.792 
14:40	89.3	89.3	98.0	60	73.6	2	4	270	0.00	29.792 
14:45	89.3	89.3	98.6	61	74.0	1	3	248	0.00	29.788 
14:50	89.3	89.3	98.6	61	74.0	1	3	248	0.00	29.785 
14:55	89.5	89.5	98.5	60	73.7	1	4	270	0.00	29.782 
15:00	89.5	89.5	97.4	58	72.7	1	3	248	0.00	29.780 
15:05	89.7	89.7	97.9	58	72.9	1	4	248	0.00	29.776 
15:10	89.7	89.7	97.4	57	72.4	2	5	292	0.00	29.773 
15:15	89.7	89.7	96.9	56	71.9	2	5	270	0.00	29.771 
15:20	89.5	89.5	96.9	57	72.2	2	3	292	0.00	29.768 
15:25	89.5	89.5	97.4	58	72.7	2	5	270	0.00	29.766 
15:30	89.5	89.5	97.4	58	72.7	2	4	270	0.00	29.767 
15:35	89.7	89.7	97.9	58	72.9	1	3	315	0.00	29.766 
15:40	89.7	89.7	98.4	59	73.4	1	2	292	0.00	29.769 
15:45	89.9	89.9	98.9	59	73.6	1	4	315	0.00	29.771 
15:50	90.1	90.1	99.9	60	74.3	1	3	270	0.00	29.769 
15:55	89.9	89.9	98.3	58	73.1	2	4	270	0.00	29.768 
16:00	89.9	89.9	98.3	58	73.1	2	4	270	0.00	29.766 
16:05	89.9	89.9	98.3	58	73.1	1	2	270	0.00	29.765 
16:10	89.9	89.9	100.0	61	74.6	1	3	315	0.00	29.764 
16:15	89.7	89.7	99.0	60	73.9	1	3	315	0.00	29.760 
16:20	89.7	89.7	99.0	60	73.9	1	3	270	0.00	29.766 
16:25	89.7	89.7	99.0	60	73.9	1	3	270	0.00	29.768 
16:30	89.7	89.7	99.0	60	73.9	1	3	270	0.00	29.768 
16:35	89.7	89.7	99.0	60	73.9	1	3	270	0.00	29.767 
16:40	89.9	89.9	99.4	60	74.1	1	2	270	0.00	29.767 
16:45	89.7	89.7	99.0	60	73.9	1	3	270	0.00	29.770 
16:50	89.7	89.7	99.5	61	74.4	1	2	270	0.00	29.771 
16:55	89.9	89.9	100.0	61	74.6	1	2	270	0.00	29.769 
17:00	89.9	89.9	100.0	61	74.6	1	3	270	0.00	29.769 
17:05	89.7	89.7	99.0	60	73.9	1	3	248	0.00	29.770 
17:10	89.5	89.5	99.0	61	74.2	1	3	248	0.00	29.770 
17:15	89.0	89.0	98.4	62	74.3	1	3	270	0.00	29.770 
17:20	88.8	88.8	97.4	61	73.6	1	3	270	0.00	29.770 
17:25	88.6	88.6	97.5	62	73.9	1	2	270	0.00	29.769 
17:30	88.6	88.6	97.5	62	73.9	1	3	270	0.00	29.768 
17:35	88.8	88.8	97.9	62	74.1	1	2	270	0.00	29.768 
17:40	88.8	88.8	97.9	62	74.1	1	3	270	0.00	29.771 
17:45	89.0	89.0	98.4	62	74.3	0	2	270	0.00	29.768 
17:50	89.0	89.0	98.4	62	74.3	1	2	270	0.00	29.768 
17:55	88.8	88.8	97.4	61	73.6	1	3	270	0.00	29.766 
18:00	88.8	88.8	97.9	62	74.1	1	4	270	0.00	29.768 
18:05	88.6	88.6	97.5	62	73.9	1	3	270	0.00	29.767 
18:10	88.2	88.2	96.5	62	73.5	1	3	270	0.00	29.768 
18:15	88.2	88.2	97.0	63	74.0	0	2	248	0.00	29.768 
18:20	88.0	88.0	96.6	63	73.8	0	2	248	0.00	29.769 
18:25	87.8	87.8	96.6	64	74.1	0	2	248	0.00	29.771 
18:30	87.6	87.6	96.1	64	73.9	0	1	248	0.00	29.768 
18:35	87.4	87.4	96.1	65	74.2	0	1	248	0.00	29.770 
18:40	87.4	87.4	96.1	65	74.2	0	1	248	0.00	29.770 
18:45	87.2	87.2	95.7	65	74.0	0	1	248	0.00	29.771 
18:50	87.2	87.2	96.1	66	74.4	0	1	248	0.00	29.772 
18:55	87.0	87.0	95.7	66	74.2	0	1	248	0.00	29.770 
19:00	87.0	87.0	95.7	66	74.2	0	1	248	0.00	29.771 
19:05	86.7	86.7	95.0	66	73.9	0	1	248	0.00	29.772 
19:10	86.5	86.5	94.9	67	74.2	0	0	---	0.00	29.767 
19:15	86.3	86.3	94.9	68	74.5	0	0	---	0.00	29.773 
19:20	86.1	86.1	94.9	69	74.7	0	0	---	0.00	29.774 
19:25	85.9	85.9	94.4	69	74.5	0	0	---	0.00	29.771 
19:30	85.5	85.5	93.9	70	74.6	0	0	---	0.00	29.769 
19:35	85.1	85.1	93.3	71	74.6	0	0	---	0.00	29.764 
19:40	84.9	84.9	92.8	71	74.4	0	0	---	0.00	29.761 
19:45	84.7	84.7	93.1	73	75.1	0	0	---	0.00	29.766 
19:50	84.3	84.3	92.2	73	74.7	0	0	---	0.00	29.768 
19:55	84.1	84.1	92.0	74	74.9	0	0	---	0.00	29.773 
20:00	83.8	83.8	91.7	75	75.0	0	0	---	0.00	29.774 
20:05	83.8	83.8	91.7	75	75.0	0	1	248	0.00	29.783 
20:10	83.8	83.8	91.7	75	75.0	0	2	248	0.00	29.787 
20:15	84.1	84.1	92.0	74	74.9	1	2	248	0.00	29.790 
20:20	84.1	84.1	92.0	74	74.9	1	3	248	0.00	29.796 
20:25	84.3	84.3	92.2	73	74.7	0	1	248	0.00	29.801 
20:30	84.1	84.1	91.7	73	74.5	0	1	248	0.00	29.801 
20:35	84.1	84.1	91.7	73	74.5	0	1	248	0.00	29.803 
20:40	84.1	84.1	91.4	72	74.1	1	2	248	0.00	29.803 
20:45	84.1	84.1	91.0	71	73.7	1	2	248	0.00	29.806 
20:50	84.1	84.1	90.4	69	72.8	0	1	248	0.00	29.806 
20:55	84.0	84.0	90.5	70	73.1	0	1	248	0.00	29.808 
21:00	83.8	83.8	90.4	71	73.4	0	1	248	0.00	29.808 
21:05	83.6	83.6	90.2	72	73.6	0	2	248	0.00	29.802 
21:10	83.2	83.2	89.4	72	73.2	0	1	248	0.00	29.802 
21:15	83.0	83.0	88.9	72	73.0	0	1	248	0.00	29.799 
21:20	82.8	82.8	88.8	73	73.2	0	1	248	0.00	29.794 
21:25	82.4	82.4	87.9	73	72.9	0	1	248	0.00	29.791 
21:30	82.2	82.2	87.5	73	72.7	0	1	248	0.00	29.787 
21:35	82.2	82.2	87.5	73	72.7	0	1	248	0.00	29.787 
21:40	82.0	82.0	87.1	73	72.5	0	1	248	0.00	29.787 
21:45	81.8	81.8	86.9	74	72.7	0	1	248	0.00	29.790 
21:50	81.6	81.6	86.5	74	72.5	0	2	248	0.00	29.795 
21:55	81.4	81.4	86.3	75	72.7	0	1	248	0.00	29.796 
22:00	81.2	81.2	85.9	75	72.5	0	1	248	0.00	29.799 
22:05	81.1	81.1	85.9	76	72.8	0	2	248	0.00	29.799 
22:10	80.9	80.9	85.7	77	73.0	0	1	248	0.00	29.800 
22:15	80.7	80.7	85.4	78	73.2	0	3	248	0.00	29.800 
22:20	80.3	80.3	84.7	79	73.2	0	1	248	0.00	29.797 
22:25	79.9	79.9	84.1	81	73.5	0	1	248	0.00	29.798 
22:30	79.6	79.6	83.6	82	73.6	0	1	248	0.00	29.794 
22:35	79.4	79.4	83.3	83	73.8	0	0	---	0.00	29.790 
22:40	79.0	79.0	82.5	84	73.7	0	0	---	0.00	29.786 
22:45	78.8	78.8	82.1	85	73.9	0	1	248	0.00	29.787 
22:50	78.6	78.6	81.7	86	74.0	0	1	248	0.00	29.786 
22:55	78.5	78.5	81.6	87	74.3	0	1	248	0.00	29.787 
23:00	78.5	78.5	81.6	87	74.3	0	1	248	0.00	29.786 
23:05	78.3	78.3	81.1	87	74.1	0	1	248	0.00	29.785 
23:10	78.3	78.3	81.1	87	74.1	0	1	248	0.00	29.784 
23:15	78.3	78.3	81.1	87	74.1	0	0	---	0.00	29.781 
23:20	78.1	78.1	80.7	88	74.2	0	1	248	0.00	29.781 
23:25	78.1	78.1	80.7	88	74.2	0	1	248	0.00	29.778 
23:30	78.1	78.1	80.7	89	74.6	0	1	248	0.01	29.780 
23:35	77.9	77.9	80.3	90	74.7	0	1	248	0.00	29.777 
23:40	77.7	77.7	79.8	90	74.5	0	0	---	0.00	29.771 
23:45	77.7	77.7	79.8	91	74.9	0	1	248	0.00	29.771 
23:50	77.6	77.6	79.5	91	74.8	0	0	---	0.00	29.770 
23:55	77.4	77.4	79.0	92	74.9	0	0	---	0.00	29.772 

CoCoRaHS
IN-AL-39
A2 Web Hosting
Creative Commons License
GoDaddy
Look for:

loaded 2017-12-12 01:53:28 • last modified 2010-11-18 10:43:29
Privacy PolicyDisclaimer
• wx.awcolley.com is powered by PmWiki v.2002016 •
• all content (unless otherwise noted) © 2017 A W Colley